createdAt,value
2018-07-12T00:00:24.814Z,10.80
2018-07-12T00:02:51.986Z,10.53
2018-07-12T00:05:19.233Z,10.97
2018-07-12T00:07:46.417Z,10.80
2018-07-12T00:10:13.619Z,10.80
2018-07-12T00:12:40.826Z,10.17
2018-07-12T00:15:08.007Z,11.63
2018-07-12T00:17:36.154Z,11.30
2018-07-12T00:20:03.323Z,12.30
2018-07-12T00:22:30.517Z,10.93
2018-07-12T00:24:58.905Z,13.80
2018-07-12T00:27:26.389Z,11.70
2018-07-12T00:29:53.557Z,12.40
2018-07-12T00:32:20.753Z,12.20
2018-07-12T00:34:47.930Z,11.17
2018-07-12T00:37:15.130Z,12.83
2018-07-12T00:39:43.233Z,15.10
2018-07-12T00:42:10.437Z,13.47
2018-07-12T00:44:37.631Z,13.80
2018-07-12T00:47:04.842Z,12.43
2018-07-12T00:49:32.015Z,13.07
2018-07-12T00:51:59.218Z,12.27
2018-07-12T00:54:26.387Z,12.90
2018-07-12T00:56:53.581Z,11.40
2018-07-12T00:59:20.765Z,14.13
2018-07-12T01:01:48.010Z,16.63
2018-07-12T01:04:16.088Z,13.17
2018-07-12T01:06:43.269Z,13.70
2018-07-12T01:09:10.473Z,12.77
2018-07-12T01:11:37.647Z,13.07
2018-07-12T01:14:05.805Z,13.30
2018-07-12T01:16:33.005Z,14.27
2018-07-12T01:19:00.209Z,14.87
2018-07-12T01:21:27.395Z,13.90
2018-07-12T01:23:54.596Z,14.03
2018-07-12T01:26:21.762Z,13.70
2018-07-12T01:28:48.993Z,12.60
2018-07-12T01:31:16.170Z,14.87
2018-07-12T01:33:44.346Z,13.00
2018-07-12T01:36:11.628Z,15.23
2018-07-12T01:38:38.753Z,14.63
2018-07-12T01:41:06.092Z,14.40
2018-07-12T01:43:33.489Z,15.20
2018-07-12T01:46:00.686Z,15.20
2018-07-12T01:48:27.994Z,14.50
2018-07-12T01:50:55.243Z,13.07
2018-07-12T01:53:22.457Z,14.57
2018-07-12T01:55:50.521Z,14.80
2018-07-12T01:58:17.742Z,15.27
2018-07-12T02:00:45.249Z,17.70
2018-07-12T02:03:12.489Z,15.17
2018-07-12T02:05:39.662Z,16.20
2018-07-12T02:08:06.840Z,16.17
2018-07-12T02:10:34.046Z,17.60
2018-07-12T02:13:01.310Z,17.73
2018-07-12T02:15:30.701Z,19.80
2018-07-12T02:17:57.940Z,18.03
2018-07-12T02:20:25.178Z,17.53
2018-07-12T02:22:52.639Z,17.00
2018-07-12T02:25:19.838Z,16.53
2018-07-12T02:27:47.014Z,17.23
2018-07-12T02:30:14.224Z,15.93
2018-07-12T02:32:41.402Z,14.93
2018-07-12T02:35:08.653Z,15.60
2018-07-12T02:37:35.794Z,14.37
2018-07-12T02:40:02.997Z,14.93
2018-07-12T02:42:30.170Z,16.73
2018-07-12T02:44:58.326Z,16.67
2018-07-12T02:47:25.616Z,15.30
2018-07-12T02:49:52.830Z,15.47
2018-07-12T02:52:20.006Z,16.60
2018-07-12T02:54:47.206Z,14.90
2018-07-12T02:57:14.381Z,14.80
2018-07-12T02:59:41.562Z,14.55
2018-07-12T03:02:08.757Z,15.10
2018-07-12T03:04:35.941Z,16.93
2018-07-12T03:07:03.149Z,14.27
2018-07-12T03:09:30.322Z,16.13
2018-07-12T03:11:58.513Z,15.13
2018-07-12T03:14:25.695Z,13.93
2018-07-12T03:16:52.906Z,16.53
2018-07-12T03:19:20.078Z,15.03
2018-07-12T03:21:47.288Z,13.80
2018-07-12T03:24:14.459Z,16.10
2018-07-12T03:26:41.662Z,14.97
2018-07-12T03:29:08.829Z,15.20
2018-07-12T03:31:37.976Z,15.73
2018-07-12T03:34:05.153Z,16.83
2018-07-12T03:36:32.349Z,18.07
2018-07-12T03:38:59.527Z,15.90
2018-07-12T03:41:26.726Z,15.97
2018-07-12T03:43:53.897Z,14.80
2018-07-12T03:46:22.094Z,17.60
2018-07-12T03:48:49.297Z,15.50
2018-07-12T03:51:16.517Z,16.37
2018-07-12T03:53:43.693Z,16.90
2018-07-12T03:56:10.861Z,17.43
2018-07-12T03:58:38.063Z,16.50
2018-07-12T04:01:05.231Z,15.77
2018-07-12T04:03:32.432Z,16.83
2018-07-12T04:05:59.614Z,15.43
2018-07-12T04:08:26.809Z,15.63
2018-07-12T04:10:54.030Z,14.53
2018-07-12T04:13:21.193Z,15.97
2018-07-12T04:15:48.373Z,15.50
2018-07-12T04:18:15.569Z,14.63
2018-07-12T04:20:42.737Z,13.60
2018-07-12T04:23:09.945Z,14.27
2018-07-12T04:25:37.116Z,14.37
2018-07-12T04:28:04.316Z,13.20
2018-07-12T04:30:31.485Z,14.20
2018-07-12T04:32:58.682Z,12.83
2018-07-12T04:35:26.806Z,12.30
2018-07-12T04:37:54.005Z,12.93
2018-07-12T04:40:21.181Z,12.23
2018-07-12T04:42:48.380Z,13.20
2018-07-12T04:45:15.554Z,12.20
2018-07-12T04:47:42.717Z,11.70
2018-07-12T04:50:10.849Z,10.97
2018-07-12T04:52:38.030Z,11.83
2018-07-12T04:55:05.233Z,12.27
2018-07-12T04:57:32.410Z,10.47
2018-07-12T05:00:00.603Z,10.73
2018-07-12T05:02:27.805Z,11.60
2018-07-12T05:04:55.998Z,12.00
2018-07-12T05:07:23.173Z,11.00
2018-07-12T05:09:50.365Z,10.40
2018-07-12T05:12:17.543Z,9.80
2018-07-12T05:14:44.737Z,9.93
2018-07-12T05:17:11.905Z,10.20
2018-07-12T05:19:39.114Z,10.10
2018-07-12T05:22:06.300Z,11.90
2018-07-12T05:24:33.489Z,8.73
2018-07-12T05:27:00.669Z,8.97
2018-07-12T05:29:27.877Z,9.10
2018-07-12T05:31:56.050Z,9.87
2018-07-12T05:34:23.257Z,10.50
2018-07-12T05:36:56.913Z,9.80
2018-07-12T05:39:25.374Z,9.87
2018-07-12T05:41:53.585Z,8.10
2018-07-12T05:44:21.849Z,7.63
2018-07-12T05:46:50.663Z,8.47
2018-07-12T05:49:19.128Z,7.17
2018-07-12T05:51:49.465Z,7.50
2018-07-12T05:54:19.761Z,7.80
2018-07-12T05:56:48.245Z,7.70
2018-07-12T05:59:16.813Z,7.30
2018-07-12T06:01:56.509Z,7.30
2018-07-12T06:04:24.781Z,6.80
2018-07-12T06:06:53.090Z,7.60
2018-07-12T06:09:21.411Z,8.20
2018-07-12T06:11:49.727Z,7.40
2018-07-12T06:14:18.009Z,6.70
2018-07-12T06:16:46.304Z,7.70
2018-07-12T06:19:14.587Z,6.17
2018-07-12T06:21:42.962Z,7.50
2018-07-12T06:24:11.245Z,7.13
2018-07-12T06:26:39.557Z,6.43
2018-07-12T06:29:07.870Z,6.70
2018-07-12T06:31:36.191Z,5.80
2018-07-12T06:34:04.509Z,7.10
2018-07-12T06:36:32.833Z,5.90
2018-07-12T06:39:01.119Z,5.60
2018-07-12T06:41:29.529Z,6.13
2018-07-12T06:43:57.806Z,5.67
2018-07-12T06:46:26.125Z,6.00
2018-07-12T06:48:54.406Z,6.17
2018-07-12T06:51:22.745Z,5.60
2018-07-12T06:53:50.984Z,7.40
2018-07-12T06:56:19.337Z,6.47
2018-07-12T06:58:47.689Z,6.00
2018-07-12T07:01:17.037Z,6.40
2018-07-12T07:03:45.391Z,5.90
2018-07-12T07:06:13.786Z,6.03
2018-07-12T07:08:42.106Z,6.50
2018-07-12T07:11:10.421Z,11.60
2018-07-12T07:13:38.987Z,9.53
2018-07-12T07:16:07.924Z,10.83
2018-07-12T07:18:36.245Z,8.40
2018-07-12T07:21:05.586Z,6.77
2018-07-12T07:23:33.894Z,7.20
2018-07-12T07:26:02.162Z,6.77
2018-07-12T07:28:31.650Z,7.50
2018-07-12T07:30:59.934Z,6.30
2018-07-12T07:33:28.234Z,6.00
2018-07-12T07:35:56.593Z,5.80
2018-07-12T07:38:26.002Z,6.30
2018-07-12T07:40:54.310Z,6.10
2018-07-12T07:43:22.971Z,6.40
2018-07-12T07:45:51.217Z,5.63
2018-07-12T07:48:19.761Z,5.70
2018-07-12T07:50:48.061Z,5.30
2018-07-12T07:53:16.357Z,6.40
2018-07-12T07:55:44.699Z,5.83
2018-07-12T07:58:12.978Z,5.47
2018-07-12T08:00:41.301Z,5.07
2018-07-12T08:03:09.634Z,5.60
2018-07-12T08:05:37.947Z,5.37
2018-07-12T08:08:06.469Z,5.50
2018-07-12T08:10:34.783Z,4.93
2018-07-12T08:13:03.091Z,4.70
2018-07-12T08:15:31.402Z,5.47
2018-07-12T08:17:59.697Z,5.00
2018-07-12T08:20:28.031Z,5.17
2018-07-12T08:22:56.316Z,5.27
2018-07-12T08:25:24.623Z,5.40
2018-07-12T08:28:04.017Z,5.73
2018-07-12T08:30:32.339Z,4.90
2018-07-12T08:33:00.733Z,5.30
2018-07-12T08:35:29.150Z,5.40
2018-07-12T08:37:57.425Z,5.00
2018-07-12T08:40:25.844Z,4.63
2018-07-12T08:42:54.270Z,5.10
2018-07-12T08:45:22.619Z,4.43
2018-07-12T08:47:50.897Z,4.87
2018-07-12T08:50:19.261Z,4.63
2018-07-12T08:52:47.563Z,4.70
2018-07-12T08:55:15.844Z,5.50
2018-07-12T08:57:44.206Z,5.27
2018-07-12T09:00:12.526Z,5.00
2018-07-12T09:02:41.098Z,4.97
2018-07-12T09:05:09.371Z,4.57
2018-07-12T09:07:37.694Z,4.97
2018-07-12T09:10:06.096Z,4.30
2018-07-12T09:12:34.425Z,4.00
2018-07-12T09:15:02.727Z,4.70
2018-07-12T09:17:31.025Z,4.90
2018-07-12T09:19:59.321Z,4.80
2018-07-12T09:22:27.654Z,4.33
2018-07-12T09:24:55.925Z,4.60
2018-07-12T09:27:25.277Z,4.13
2018-07-12T09:29:53.543Z,4.27
2018-07-12T09:32:22.838Z,4.50
2018-07-12T09:37:41.903Z,3.70
2018-07-12T09:43:00.695Z,3.40
2018-07-12T09:45:28.943Z,4.30
2018-07-12T09:47:57.249Z,3.40
2018-07-12T09:50:25.654Z,3.97
2018-07-12T09:52:53.984Z,3.93
2018-07-12T09:55:22.286Z,3.43
2018-07-12T09:58:01.999Z,3.50
2018-07-12T10:00:35.719Z,4.00
2018-07-12T10:03:20.975Z,3.57
2018-07-12T10:05:55.593Z,3.47
2018-07-12T10:08:29.093Z,3.73
2018-07-12T10:11:02.521Z,3.80
2018-07-12T10:13:36.252Z,3.50
2018-07-12T10:16:08.704Z,3.77
2018-07-12T10:18:36.977Z,3.80
2018-07-12T10:21:05.241Z,3.90
2018-07-12T10:23:33.554Z,3.73
2018-07-12T10:26:02.926Z,3.63
2018-07-12T10:28:31.274Z,3.23
2018-07-12T10:30:59.561Z,2.70
2018-07-12T10:33:27.821Z,3.20
2018-07-12T10:35:56.109Z,3.30
2018-07-12T10:38:24.477Z,3.20
2018-07-12T10:40:52.811Z,3.77
2018-07-12T10:43:21.141Z,3.00
2018-07-12T10:45:50.477Z,2.93
2018-07-12T10:48:18.729Z,3.03
2018-07-12T10:50:47.041Z,3.63
2018-07-12T10:53:15.299Z,3.50
2018-07-12T10:55:43.667Z,3.50
2018-07-12T10:58:12.052Z,3.40
2018-07-12T11:00:40.352Z,3.47
2018-07-12T11:03:08.659Z,4.07
2018-07-12T11:05:36.989Z,4.10
2018-07-12T11:08:05.546Z,3.70
2018-07-12T11:10:33.925Z,3.60
2018-07-12T11:13:12.672Z,4.27
2018-07-12T11:15:40.961Z,3.63
2018-07-12T11:18:09.266Z,3.70
2018-07-12T11:20:37.557Z,2.90
2018-07-12T11:23:06.066Z,3.23
2018-07-12T11:25:35.368Z,4.10
2018-07-12T11:28:04.098Z,4.23
2018-07-12T11:30:32.670Z,3.27
2018-07-12T11:33:02.214Z,3.10
2018-07-12T11:35:30.589Z,3.03
2018-07-12T11:37:58.873Z,3.37
2018-07-12T11:40:27.117Z,3.50
2018-07-12T11:42:55.401Z,4.03
2018-07-12T11:45:23.638Z,3.37
2018-07-12T11:47:51.905Z,3.07
2018-07-12T11:50:20.165Z,3.77
2018-07-12T11:52:48.505Z,3.40
2018-07-12T11:55:20.789Z,3.67
2018-07-12T11:57:49.078Z,3.30
2018-07-12T12:00:17.333Z,3.20
2018-07-12T12:02:45.609Z,3.33
2018-07-12T12:05:13.873Z,3.00
2018-07-12T12:07:42.157Z,3.37
2018-07-12T12:10:10.435Z,3.60
2018-07-12T12:12:38.748Z,3.20
2018-07-12T12:15:07.000Z,3.37
2018-07-12T12:17:35.296Z,3.13
2018-07-12T12:20:03.605Z,2.63
2018-07-12T12:22:31.854Z,3.10
2018-07-12T12:25:00.160Z,2.70
2018-07-12T12:27:28.415Z,3.00
2018-07-12T12:29:56.789Z,3.37
2018-07-12T12:32:25.069Z,3.30
2018-07-12T12:34:53.377Z,3.47
2018-07-12T12:37:21.681Z,3.20
2018-07-12T12:39:49.988Z,4.13
2018-07-12T12:42:18.233Z,4.10
2018-07-12T12:44:46.514Z,4.13
2018-07-12T12:47:14.793Z,3.80
2018-07-12T12:49:43.077Z,3.27
2018-07-12T12:52:12.921Z,3.10
2018-07-12T12:54:41.293Z,2.50
2018-07-12T12:57:09.600Z,2.60
2018-07-12T12:59:37.998Z,3.27
2018-07-12T13:02:07.284Z,2.70
2018-07-12T13:04:35.577Z,3.20
2018-07-12T13:07:03.897Z,3.47
2018-07-12T13:09:32.240Z,3.83
2018-07-12T13:12:00.557Z,2.83
2018-07-12T13:14:28.893Z,2.80
2018-07-12T13:16:57.140Z,3.13
2018-07-12T13:19:26.540Z,3.40
2018-07-12T13:21:58.826Z,2.90
2018-07-12T13:24:27.081Z,3.20
2018-07-12T13:26:55.378Z,2.87
2018-07-12T13:29:27.282Z,3.20
2018-07-12T13:31:55.630Z,3.00
2018-07-12T13:34:23.924Z,3.70
2018-07-12T13:36:53.261Z,3.27
2018-07-12T13:39:21.521Z,3.37
2018-07-12T13:41:49.880Z,3.90
2018-07-12T13:44:21.367Z,3.60
2018-07-12T13:46:50.940Z,4.00
2018-07-12T13:49:19.157Z,4.37
2018-07-12T13:51:49.497Z,4.70
2018-07-12T13:54:18.486Z,3.97
2018-07-12T13:56:47.277Z,5.20
2018-07-12T13:59:15.549Z,4.77
2018-07-12T14:01:43.866Z,4.80
2018-07-12T14:04:12.593Z,5.73
2018-07-12T14:06:40.921Z,5.10
2018-07-12T14:09:11.086Z,4.70
2018-07-12T14:11:39.705Z,5.20
2018-07-12T14:14:08.605Z,3.40
2018-07-12T14:16:37.966Z,3.70
2018-07-12T14:19:06.379Z,2.80
2018-07-12T14:21:34.642Z,4.43
2018-07-12T14:24:02.936Z,3.10
2018-07-12T14:26:31.237Z,3.87
2018-07-12T14:28:59.634Z,3.27
2018-07-12T14:31:27.893Z,4.40
2018-07-12T14:33:57.301Z,3.13
2018-07-12T14:36:25.569Z,3.13
2018-07-12T14:38:53.873Z,3.40
2018-07-12T14:41:22.153Z,2.90
2018-07-12T14:43:50.714Z,2.57
2018-07-12T14:46:18.973Z,3.00
2018-07-12T14:48:47.268Z,2.83
2018-07-12T14:51:17.625Z,2.40
2018-07-12T14:53:45.936Z,2.80
2018-07-12T14:56:14.213Z,2.43
2018-07-12T14:58:42.666Z,2.40
2018-07-12T15:01:10.933Z,2.50
2018-07-12T15:03:40.529Z,2.30
2018-07-12T15:06:08.799Z,2.30
2018-07-12T15:08:37.061Z,2.20
2018-07-12T15:11:05.393Z,2.53
2018-07-12T15:13:33.785Z,2.60
2018-07-12T15:16:03.157Z,2.40
2018-07-12T15:18:31.455Z,2.70
2018-07-12T15:21:00.846Z,2.90
2018-07-12T15:23:29.117Z,3.10
2018-07-12T15:25:57.516Z,3.30
2018-07-12T15:28:25.803Z,3.20
2018-07-12T15:30:54.131Z,3.07
2018-07-12T15:33:22.417Z,3.65
2018-07-12T15:35:50.709Z,3.80
2018-07-12T15:38:18.961Z,3.13
2018-07-12T15:40:48.385Z,3.60
2018-07-12T15:43:16.641Z,4.13
2018-07-12T15:45:45.021Z,3.00
2018-07-12T15:48:13.289Z,3.43
2018-07-12T15:50:42.605Z,3.77
2018-07-12T15:53:10.987Z,3.10
2018-07-12T15:55:39.216Z,3.40
2018-07-12T15:58:07.506Z,2.97
2018-07-12T16:00:36.821Z,3.20
2018-07-12T16:03:05.090Z,3.87
2018-07-12T16:05:34.353Z,3.10
2018-07-12T16:08:02.643Z,3.33
2018-07-12T16:10:30.903Z,3.43
2018-07-12T16:12:59.205Z,3.60
2018-07-12T16:15:27.485Z,3.60
2018-07-12T16:17:55.795Z,3.23
2018-07-12T16:20:24.134Z,3.40
2018-07-12T16:22:52.481Z,3.57
2018-07-12T16:25:20.989Z,4.00
2018-07-12T16:27:53.076Z,3.70
2018-07-12T16:30:23.376Z,3.90
2018-07-12T16:32:51.658Z,3.20
2018-07-12T16:35:19.908Z,3.40
2018-07-12T16:37:48.217Z,3.80
2018-07-12T16:40:16.574Z,4.33
2018-07-12T16:42:44.854Z,4.30
2018-07-12T16:45:13.368Z,4.23
2018-07-12T16:47:41.705Z,3.20
2018-07-12T16:50:09.977Z,3.23
2018-07-12T16:52:38.272Z,4.20
2018-07-12T16:55:06.544Z,3.60
2018-07-12T16:57:34.857Z,3.60
2018-07-12T17:00:03.298Z,3.20
2018-07-12T17:02:31.555Z,4.03
2018-07-12T17:04:59.861Z,3.77
2018-07-12T17:07:28.137Z,3.17
2018-07-12T17:09:56.476Z,3.57
2018-07-12T17:12:24.741Z,4.10
2018-07-12T17:14:53.086Z,4.00
2018-07-12T17:17:21.341Z,3.10
2018-07-12T17:19:49.710Z,4.00
2018-07-12T17:22:18.017Z,4.70
2018-07-12T17:24:47.314Z,3.60
2018-07-12T17:27:15.576Z,4.10
2018-07-12T17:29:43.852Z,3.70
2018-07-12T17:32:12.209Z,4.07
2018-07-12T17:34:40.498Z,3.47
2018-07-12T17:37:08.761Z,3.80
2018-07-12T17:39:37.058Z,4.40
2018-07-12T17:42:05.312Z,4.30
2018-07-12T17:44:33.605Z,4.17
2018-07-12T17:47:03.915Z,3.80
2018-07-12T17:49:32.232Z,4.07
2018-07-12T17:52:00.522Z,4.63
2018-07-12T17:54:28.794Z,5.57
2018-07-12T17:56:57.065Z,4.47
2018-07-12T17:59:25.317Z,5.20
2018-07-12T18:01:53.586Z,4.87
2018-07-12T18:04:21.886Z,4.97
2018-07-12T18:06:50.161Z,4.50
2018-07-12T18:09:18.405Z,4.73
2018-07-12T18:11:47.829Z,4.97
2018-07-12T18:14:16.136Z,4.53
2018-07-12T18:16:44.395Z,4.30
2018-07-12T18:19:12.840Z,4.83
2018-07-12T18:21:41.126Z,4.50
2018-07-12T18:24:10.454Z,5.10
2018-07-12T18:26:38.763Z,5.00
2018-07-12T18:29:07.019Z,3.90
2018-07-12T18:31:35.320Z,4.93
2018-07-12T18:34:03.629Z,4.00
2018-07-12T18:36:31.985Z,4.40
2018-07-12T18:39:00.237Z,4.40
2018-07-12T18:41:28.545Z,5.20
2018-07-12T18:43:56.833Z,5.03
2018-07-12T18:46:25.089Z,4.57
2018-07-12T18:48:53.409Z,5.30
2018-07-12T18:51:21.727Z,4.13
2018-07-12T18:53:51.028Z,4.50
2018-07-12T18:56:19.313Z,4.50
2018-07-12T18:58:47.598Z,4.60
2018-07-12T19:01:15.907Z,4.97
2018-07-12T19:03:45.466Z,4.53
2018-07-12T19:06:13.749Z,4.53
2018-07-12T19:08:47.842Z,4.80
2018-07-12T19:11:16.205Z,6.30
2018-07-12T19:13:44.808Z,6.53
2018-07-12T19:16:13.127Z,5.70
2018-07-12T19:18:42.466Z,5.60
2018-07-12T19:21:10.738Z,5.87
2018-07-12T19:23:39.039Z,5.60
2018-07-12T19:26:07.297Z,5.47
2018-07-12T19:28:35.596Z,5.70
2018-07-12T19:31:04.058Z,6.20
2018-07-12T19:33:34.524Z,6.13
2018-07-12T19:36:02.854Z,6.70
2018-07-12T19:38:31.421Z,6.00
2018-07-12T19:41:01.042Z,8.30
2018-07-12T19:43:29.300Z,6.90
2018-07-12T19:45:57.577Z,8.27
2018-07-12T19:48:25.838Z,8.87
2018-07-12T19:50:55.261Z,7.97
2018-07-12T19:53:23.537Z,7.77
2018-07-12T19:55:51.817Z,9.57
2018-07-12T19:58:20.066Z,9.10
2018-07-12T20:00:48.336Z,9.50
2018-07-12T20:03:17.661Z,11.03
2018-07-12T20:05:45.941Z,10.27
2018-07-12T20:08:14.308Z,10.30
2018-07-12T20:10:42.590Z,10.83
2018-07-12T20:13:10.879Z,11.13
2018-07-12T20:15:39.253Z,11.00
2018-07-12T20:18:07.673Z,11.13
2018-07-12T20:20:38.154Z,11.27
2018-07-12T20:23:06.424Z,10.97
2018-07-12T20:25:34.721Z,10.43
2018-07-12T20:28:03.061Z,11.60
2018-07-12T20:30:31.614Z,11.60
2018-07-12T20:33:00.965Z,12.43
2018-07-12T20:35:29.265Z,13.70
2018-07-12T20:37:57.542Z,14.00
2018-07-12T20:40:25.813Z,14.20
2018-07-12T20:42:54.074Z,13.00
2018-07-12T20:45:22.394Z,13.20
2018-07-12T20:47:51.737Z,14.60
2018-07-12T20:50:20.059Z,13.60
2018-07-12T20:52:48.405Z,13.87
2018-07-12T20:55:16.707Z,14.13
2018-07-12T20:57:45.993Z,14.13
2018-07-12T21:00:14.261Z,15.60
2018-07-12T21:02:42.565Z,14.27
2018-07-12T21:05:10.860Z,13.80
2018-07-12T21:07:39.206Z,14.97
2018-07-12T21:10:07.808Z,14.20
2018-07-12T21:12:36.100Z,16.53
2018-07-12T21:15:04.501Z,15.30
2018-07-12T21:17:32.798Z,16.87
2018-07-12T21:20:01.072Z,14.90
2018-07-12T21:22:29.356Z,15.10
2018-07-12T21:24:57.629Z,14.73
2018-07-12T21:27:25.925Z,16.80
2018-07-12T21:29:54.178Z,15.90
2018-07-12T21:32:22.487Z,17.17
2018-07-12T21:34:50.749Z,15.97
2018-07-12T21:37:19.005Z,16.47
2018-07-12T21:39:47.296Z,17.20
2018-07-12T21:42:15.593Z,16.60
2018-07-12T21:44:43.869Z,18.00
2018-07-12T21:47:12.148Z,17.33
2018-07-12T21:49:40.417Z,17.73
2018-07-12T21:52:08.717Z,17.03
2018-07-12T21:54:38.068Z,17.63
2018-07-12T21:57:06.349Z,18.87
2018-07-12T21:59:35.649Z,17.60
2018-07-12T22:02:04.014Z,17.53
2018-07-12T22:04:33.437Z,18.50
2018-07-12T22:08:18.527Z,19.83
2018-07-12T22:10:47.869Z,18.87
2018-07-12T22:13:16.840Z,20.97
2018-07-12T22:15:45.154Z,20.07
2018-07-12T22:18:13.525Z,19.63
2018-07-12T22:20:41.845Z,20.00
2018-07-12T22:23:10.084Z,20.37
2018-07-12T22:25:38.496Z,20.57
2018-07-12T22:28:06.969Z,21.83
2018-07-12T22:30:35.465Z,23.17
2018-07-12T22:33:04.252Z,19.70
2018-07-12T22:35:32.537Z,24.12
2018-07-12T22:38:01.829Z,22.33
2018-07-12T22:40:30.341Z,23.00
2018-07-12T22:42:58.793Z,23.17
2018-07-12T22:45:27.117Z,20.90
2018-07-12T22:47:57.053Z,22.53
2018-07-12T22:50:26.431Z,23.23
2018-07-12T22:52:54.749Z,25.67
2018-07-12T22:55:23.142Z,24.80
2018-07-12T22:57:51.412Z,23.87
2018-07-12T23:00:19.659Z,22.83
2018-07-12T23:02:47.938Z,23.00
2018-07-12T23:05:17.363Z,23.83
2018-07-12T23:07:45.638Z,23.73
2018-07-12T23:10:13.894Z,25.63
2018-07-12T23:12:42.389Z,24.13
2018-07-12T23:15:10.673Z,24.00
2018-07-12T23:17:38.954Z,26.20
2018-07-12T23:20:07.235Z,25.73
2018-07-12T23:22:35.554Z,25.70
2018-07-12T23:25:05.905Z,25.43
2018-07-12T23:27:34.222Z,25.30
2018-07-12T23:30:03.626Z,26.83
2018-07-12T23:32:31.911Z,24.90
2018-07-12T23:35:00.210Z,25.50
2018-07-12T23:37:29.565Z,28.90
2018-07-12T23:39:57.884Z,28.30
2018-07-12T23:42:26.165Z,26.13
2018-07-12T23:44:54.473Z,24.27
2018-07-12T23:47:22.769Z,25.50
2018-07-12T23:49:51.063Z,25.23
2018-07-12T23:52:19.340Z,24.90
2018-07-12T23:54:47.625Z,26.73
2018-07-12T23:57:15.878Z,26.97
2018-07-12T23:59:44.210Z,25.90
